SVA107 OERK-OEJN
Flight info
| Callsign | SVA107 |
|---|---|
| Flight time | 1h 19m |
| Altitude | 36000 |
| Route | DURMA1L DURMA G782 VEMEM VEMEM1C |
| Aircraft | A320/M-SDE3FGHIRWY/LB1 |
Departure
| Time | 2026-04-29 01:25 |
|---|---|
| Airport | King Khalid International Airport (OERK) |
Arrival
| Time | 2026-04-29 02:45 |
|---|---|
| Airport | King Abdulaziz International Airport (OEJN) |
| Time | Latitude | Longitude | Altitude | Speed | Heading |
|---|---|---|---|---|---|
| 2026-04-29 00:58 | 24.94982 | 46.71291 | 2077 ft | 0 kts | 240° |
| 2026-04-29 01:14 | 24.94989 | 46.71304 | 2075 ft | 4 kts | 240° |
| 2026-04-29 01:14 | 24.95002 | 46.71330 | 2076 ft | 4 kts | 240° |
| 2026-04-29 01:15 | 24.95014 | 46.71353 | 2077 ft | 2 kts | 240° |
| 2026-04-29 01:15 | 24.95029 | 46.71374 | 2077 ft | 4 kts | 211° |
| 2026-04-29 01:15 | 24.95052 | 46.71381 | 2077 ft | 4 kts | 163° |
| 2026-04-29 01:15 | 24.95071 | 46.71371 | 2077 ft | 4 kts | 150° |
| 2026-04-29 01:16 | 24.95095 | 46.71357 | 2077 ft | 4 kts | 153° |
| 2026-04-29 01:16 | 24.95107 | 46.71350 | 2077 ft | 0 kts | 150° |
| 2026-04-29 01:18 | 24.95083 | 46.71366 | 2074 ft | 5 kts | 149° |
| 2026-04-29 01:18 | 24.95044 | 46.71391 | 2077 ft | 10 kts | 150° |
| 2026-04-29 01:19 | 24.94962 | 46.71442 | 2077 ft | 17 kts | 151° |
| 2026-04-29 01:19 | 24.94884 | 46.71490 | 2075 ft | 22 kts | 150° |
| 2026-04-29 01:19 | 24.94804 | 46.71623 | 2074 ft | 14 kts | 77° |
| 2026-04-29 01:19 | 24.94757 | 46.71708 | 2077 ft | 13 kts | 150° |
| 2026-04-29 01:20 | 24.94668 | 46.71763 | 2077 ft | 17 kts | 151° |
| 2026-04-29 01:20 | 24.94555 | 46.71834 | 2077 ft | 18 kts | 149° |
| 2026-04-29 01:20 | 24.94484 | 46.71881 | 2077 ft | 17 kts | 150° |
| 2026-04-29 01:20 | 24.94385 | 46.71942 | 2077 ft | 15 kts | 150° |
| 2026-04-29 01:21 | 24.94309 | 46.72008 | 2077 ft | 13 kts | 114° |
| 2026-04-29 01:21 | 24.94324 | 46.72091 | 2075 ft | 11 kts | 61° |
| 2026-04-29 01:21 | 24.94340 | 46.72122 | 2074 ft | 0 kts | 62° |
| 2026-04-29 01:22 | 24.94475 | 46.72231 | 2076 ft | 0 kts | 327° |
| 2026-04-29 01:24 | 24.94484 | 46.72225 | 2076 ft | 9 kts | 329° |
| 2026-04-29 01:24 | 24.94769 | 46.72045 | 2078 ft | 83 kts | 330° |
| 2026-04-29 01:25 | 24.95454 | 46.71613 | 2076 ft | 141 kts | 330° |
| 2026-04-29 01:25 | 24.96429 | 46.70993 | 2259 ft | 171 kts | 330° |
| 2026-04-29 01:25 | 24.97461 | 46.70329 | 2912 ft | 173 kts | 331° |
| 2026-04-29 01:25 | 24.98516 | 46.69661 | 3476 ft | 183 kts | 332° |
| 2026-04-29 01:26 | 24.99703 | 46.68923 | 3777 ft | 208 kts | 332° |
| 2026-04-29 01:26 | 25.01019 | 46.68109 | 4149 ft | 232 kts | 332° |
| 2026-04-29 01:26 | 25.02511 | 46.67184 | 4625 ft | 252 kts | 332° |
| 2026-04-29 01:26 | 25.04045 | 46.66223 | 5425 ft | 259 kts | 331° |
| 2026-04-29 01:27 | 25.05607 | 46.65199 | 6301 ft | 264 kts | 328° |
| 2026-04-29 01:27 | 25.06971 | 46.63817 | 7143 ft | 271 kts | 307° |
| 2026-04-29 01:27 | 25.07699 | 46.61883 | 7976 ft | 281 kts | 281° |
| 2026-04-29 01:27 | 25.07541 | 46.59711 | 8781 ft | 292 kts | 253° |
| 2026-04-29 01:28 | 25.06474 | 46.57775 | 9580 ft | 301 kts | 233° |
| 2026-04-29 01:28 | 25.05124 | 46.55982 | 10299 ft | 310 kts | 232° |
| 2026-04-29 01:28 | 25.03684 | 46.54083 | 10549 ft | 334 kts | 232° |
| 2026-04-29 01:28 | 25.02140 | 46.52050 | 10746 ft | 357 kts | 232° |
| 2026-04-29 01:29 | 25.00514 | 46.49902 | 11197 ft | 370 kts | 232° |
| 2026-04-29 01:29 | 24.98856 | 46.47707 | 11869 ft | 375 kts | 232° |
| 2026-04-29 01:29 | 24.97179 | 46.45483 | 12564 ft | 379 kts | 232° |
| 2026-04-29 01:29 | 24.95482 | 46.43233 | 13247 ft | 383 kts | 232° |
| 2026-04-29 01:30 | 24.93772 | 46.40963 | 13910 ft | 387 kts | 232° |
| 2026-04-29 01:30 | 24.92047 | 46.38669 | 14558 ft | 390 kts | 232° |
| 2026-04-29 01:30 | 24.90323 | 46.36380 | 15177 ft | 394 kts | 232° |
| 2026-04-29 01:30 | 24.88545 | 46.34020 | 15804 ft | 398 kts | 232° |
| 2026-04-29 01:31 | 24.86794 | 46.31693 | 16404 ft | 401 kts | 232° |
| 2026-04-29 01:31 | 24.85003 | 46.29314 | 17004 ft | 405 kts | 232° |
| 2026-04-29 01:31 | 24.83201 | 46.26918 | 17598 ft | 408 kts | 232° |
| 2026-04-29 01:31 | 24.81379 | 46.24500 | 18173 ft | 412 kts | 232° |
| 2026-04-29 01:32 | 24.79541 | 46.22066 | 18737 ft | 415 kts | 232° |
| 2026-04-29 01:32 | 24.77685 | 46.19614 | 19292 ft | 419 kts | 232° |
| 2026-04-29 01:32 | 24.75816 | 46.17145 | 19834 ft | 422 kts | 232° |
| 2026-04-29 01:32 | 24.73929 | 46.14655 | 20354 ft | 425 kts | 232° |
| 2026-04-29 01:33 | 24.72028 | 46.12143 | 20852 ft | 428 kts | 232° |
| 2026-04-29 01:33 | 24.70119 | 46.09619 | 21326 ft | 431 kts | 232° |
| 2026-04-29 01:33 | 24.68192 | 46.07076 | 21787 ft | 434 kts | 232° |
| 2026-04-29 01:33 | 24.66247 | 46.04514 | 22231 ft | 437 kts | 232° |
| 2026-04-29 01:34 | 24.64290 | 46.01939 | 22669 ft | 440 kts | 232° |
| 2026-04-29 01:34 | 24.62324 | 45.99351 | 23077 ft | 443 kts | 232° |
| 2026-04-29 01:34 | 24.60342 | 45.96738 | 23477 ft | 445 kts | 232° |
| 2026-04-29 01:34 | 24.58354 | 45.94119 | 23857 ft | 448 kts | 232° |
| 2026-04-29 01:35 | 24.56350 | 45.91480 | 24235 ft | 451 kts | 232° |
| 2026-04-29 01:35 | 24.54334 | 45.88828 | 24593 ft | 453 kts | 232° |
| 2026-04-29 01:35 | 24.52306 | 45.86162 | 24944 ft | 455 kts | 232° |
| 2026-04-29 01:35 | 24.50292 | 45.83518 | 25285 ft | 458 kts | 232° |
| 2026-04-29 01:36 | 24.48238 | 45.80829 | 25610 ft | 460 kts | 232° |
| 2026-04-29 01:36 | 24.46188 | 45.78121 | 25934 ft | 462 kts | 234° |
| 2026-04-29 01:36 | 24.44475 | 45.75145 | 26241 ft | 461 kts | 245° |
| 2026-04-29 01:36 | 24.43068 | 45.71975 | 26552 ft | 463 kts | 246° |
| 2026-04-29 01:37 | 24.41658 | 45.68788 | 26838 ft | 465 kts | 246° |
| 2026-04-29 01:37 | 24.40240 | 45.65590 | 27118 ft | 467 kts | 246° |
| 2026-04-29 01:37 | 24.38815 | 45.62377 | 27395 ft | 469 kts | 246° |
| 2026-04-29 01:37 | 24.37380 | 45.59154 | 27663 ft | 471 kts | 246° |
| 2026-04-29 01:38 | 24.35936 | 45.55919 | 27922 ft | 473 kts | 246° |
| 2026-04-29 01:38 | 24.34487 | 45.52672 | 28146 ft | 475 kts | 246° |
| 2026-04-29 01:38 | 24.33032 | 45.49414 | 28389 ft | 476 kts | 246° |
| 2026-04-29 01:38 | 24.31573 | 45.46146 | 28613 ft | 478 kts | 246° |
| 2026-04-29 01:39 | 24.30108 | 45.42862 | 28888 ft | 478 kts | 246° |
| 2026-04-29 01:39 | 24.28662 | 45.39632 | 29194 ft | 477 kts | 245° |
| 2026-04-29 01:39 | 24.27200 | 45.36367 | 29511 ft | 476 kts | 246° |
| 2026-04-29 01:39 | 24.25740 | 45.33100 | 29812 ft | 476 kts | 246° |
| 2026-04-29 01:40 | 24.24286 | 45.29846 | 30120 ft | 475 kts | 246° |
| 2026-04-29 01:40 | 24.22830 | 45.26591 | 30420 ft | 475 kts | 245° |
| 2026-04-29 01:40 | 24.21375 | 45.23349 | 30718 ft | 474 kts | 245° |
| 2026-04-29 01:40 | 24.19921 | 45.20114 | 31014 ft | 473 kts | 245° |
| 2026-04-29 01:41 | 24.18464 | 45.16877 | 31302 ft | 473 kts | 245° |
| 2026-04-29 01:41 | 24.17011 | 45.13646 | 31604 ft | 472 kts | 245° |
| 2026-04-29 01:41 | 24.15581 | 45.10458 | 31889 ft | 472 kts | 245° |
| 2026-04-29 01:41 | 24.14135 | 45.07240 | 32178 ft | 471 kts | 245° |
| 2026-04-29 01:42 | 24.12687 | 45.04023 | 32461 ft | 471 kts | 245° |
| 2026-04-29 01:42 | 24.11243 | 45.00820 | 32742 ft | 470 kts | 245° |
| 2026-04-29 01:42 | 24.09791 | 44.97608 | 33020 ft | 470 kts | 245° |
| 2026-04-29 01:42 | 24.08341 | 44.94406 | 33295 ft | 469 kts | 245° |
| 2026-04-29 01:43 | 24.06890 | 44.91199 | 33574 ft | 468 kts | 245° |
| 2026-04-29 01:43 | 24.05448 | 44.88007 | 33851 ft | 468 kts | 245° |
| 2026-04-29 01:43 | 24.04006 | 44.84813 | 34128 ft | 467 kts | 245° |
| 2026-04-29 01:43 | 24.02571 | 44.81636 | 34406 ft | 467 kts | 245° |
| 2026-04-29 01:44 | 24.01125 | 44.78448 | 34678 ft | 466 kts | 245° |
| 2026-04-29 01:44 | 23.99683 | 44.75279 | 34933 ft | 466 kts | 245° |
| 2026-04-29 01:44 | 23.98238 | 44.72108 | 35170 ft | 465 kts | 245° |
| 2026-04-29 01:44 | 23.96800 | 44.68949 | 35399 ft | 465 kts | 245° |
| 2026-04-29 01:45 | 23.95362 | 44.65779 | 35628 ft | 464 kts | 245° |
| 2026-04-29 01:45 | 23.93928 | 44.62614 | 35813 ft | 464 kts | 245° |
| 2026-04-29 01:45 | 23.91763 | 44.55997 | 35878 ft | 463 kts | 259° |
| 2026-04-29 01:46 | 23.90352 | 44.49125 | 35875 ft | 463 kts | 259° |
| 2026-04-29 01:46 | 23.88905 | 44.42308 | 35871 ft | 464 kts | 259° |
| 2026-04-29 01:47 | 23.87436 | 44.35451 | 35860 ft | 463 kts | 259° |
| 2026-04-29 01:47 | 23.85962 | 44.28590 | 35872 ft | 464 kts | 259° |
| 2026-04-29 01:48 | 23.84482 | 44.21722 | 35870 ft | 464 kts | 259° |
| 2026-04-29 01:48 | 23.83010 | 44.14862 | 35879 ft | 464 kts | 259° |
| 2026-04-29 01:49 | 23.81535 | 44.08009 | 35862 ft | 463 kts | 259° |
| 2026-04-29 01:49 | 23.80068 | 44.01200 | 35869 ft | 463 kts | 258° |
| 2026-04-29 01:50 | 23.78580 | 43.94336 | 35871 ft | 464 kts | 258° |
| 2026-04-29 01:50 | 23.77087 | 43.87484 | 35866 ft | 464 kts | 258° |
| 2026-04-29 01:51 | 23.75589 | 43.80639 | 35874 ft | 464 kts | 258° |
| 2026-04-29 01:51 | 23.74090 | 43.73780 | 35875 ft | 464 kts | 258° |
| 2026-04-29 01:52 | 23.72596 | 43.66973 | 35880 ft | 464 kts | 258° |
| 2026-04-29 01:52 | 23.71081 | 43.60122 | 35880 ft | 464 kts | 258° |
| 2026-04-29 01:53 | 23.69563 | 43.53276 | 35882 ft | 464 kts | 258° |
| 2026-04-29 01:53 | 23.68037 | 43.46427 | 35882 ft | 464 kts | 258° |
| 2026-04-29 01:54 | 23.66518 | 43.39578 | 35882 ft | 465 kts | 258° |
| 2026-04-29 01:54 | 23.64990 | 43.32721 | 35881 ft | 464 kts | 258° |
| 2026-04-29 01:55 | 23.63469 | 43.25870 | 35881 ft | 465 kts | 258° |
| 2026-04-29 01:55 | 23.61953 | 43.19071 | 35884 ft | 465 kts | 258° |
| 2026-04-29 01:56 | 23.60413 | 43.12209 | 35885 ft | 465 kts | 258° |
| 2026-04-29 01:56 | 23.59128 | 43.06473 | 35886 ft | 465 kts | 258° |
| 2026-04-29 01:57 | 23.57604 | 42.99670 | 35885 ft | 465 kts | 258° |
| 2026-04-29 01:57 | 23.56064 | 42.92836 | 35883 ft | 464 kts | 258° |
| 2026-04-29 01:58 | 23.54517 | 42.86001 | 35880 ft | 464 kts | 258° |
| 2026-04-29 01:58 | 23.52968 | 42.79174 | 35872 ft | 464 kts | 258° |
| 2026-04-29 01:59 | 23.51424 | 42.72349 | 35876 ft | 464 kts | 258° |
| 2026-04-29 01:59 | 23.49879 | 42.65506 | 35881 ft | 464 kts | 258° |
| 2026-04-29 02:00 | 23.48316 | 42.58682 | 35880 ft | 464 kts | 258° |
| 2026-04-29 02:00 | 23.46768 | 42.51897 | 35880 ft | 464 kts | 258° |
| 2026-04-29 02:01 | 23.45211 | 42.45072 | 35879 ft | 464 kts | 258° |
| 2026-04-29 02:01 | 23.43644 | 42.38242 | 35881 ft | 464 kts | 258° |
| 2026-04-29 02:02 | 23.42075 | 42.31422 | 35880 ft | 464 kts | 258° |
| 2026-04-29 02:02 | 23.40519 | 42.24641 | 35881 ft | 464 kts | 258° |
| 2026-04-29 02:03 | 23.38943 | 42.17830 | 35880 ft | 464 kts | 258° |
| 2026-04-29 02:03 | 23.37363 | 42.11001 | 35881 ft | 465 kts | 258° |
| 2026-04-29 02:04 | 23.35783 | 42.04166 | 35883 ft | 465 kts | 258° |
| 2026-04-29 02:04 | 23.34198 | 41.97345 | 35883 ft | 465 kts | 258° |
| 2026-04-29 02:05 | 23.32621 | 41.90561 | 35885 ft | 465 kts | 258° |
| 2026-04-29 02:05 | 23.31033 | 41.83732 | 35886 ft | 465 kts | 258° |
| 2026-04-29 02:06 | 23.29439 | 41.76910 | 35887 ft | 465 kts | 258° |
| 2026-04-29 02:06 | 23.27255 | 41.70291 | 35886 ft | 469 kts | 243° |
| 2026-04-29 02:07 | 23.23771 | 41.64322 | 35887 ft | 470 kts | 239° |
| 2026-04-29 02:07 | 23.20222 | 41.58337 | 35887 ft | 470 kts | 239° |
| 2026-04-29 02:08 | 23.16693 | 41.52337 | 35888 ft | 470 kts | 239° |
| 2026-04-29 02:08 | 23.13157 | 41.46352 | 35889 ft | 471 kts | 239° |
| 2026-04-29 02:09 | 23.09607 | 41.40377 | 35890 ft | 471 kts | 239° |
| 2026-04-29 02:09 | 23.06058 | 41.34402 | 35890 ft | 471 kts | 239° |
| 2026-04-29 02:10 | 23.02511 | 41.28431 | 35889 ft | 471 kts | 239° |
| 2026-04-29 02:10 | 22.98961 | 41.22462 | 35889 ft | 470 kts | 239° |
| 2026-04-29 02:11 | 22.95433 | 41.16537 | 35889 ft | 470 kts | 239° |
| 2026-04-29 02:11 | 22.91879 | 41.10569 | 35888 ft | 470 kts | 239° |
| 2026-04-29 02:12 | 22.88326 | 41.04615 | 35887 ft | 470 kts | 239° |
| 2026-04-29 02:12 | 22.84759 | 40.98652 | 35887 ft | 470 kts | 239° |
| 2026-04-29 02:13 | 22.81197 | 40.92701 | 35885 ft | 470 kts | 239° |
| 2026-04-29 02:13 | 22.77657 | 40.86794 | 35884 ft | 470 kts | 239° |
| 2026-04-29 02:14 | 22.74086 | 40.80858 | 35884 ft | 470 kts | 239° |
| 2026-04-29 02:14 | 22.70521 | 40.74919 | 35882 ft | 470 kts | 239° |
| 2026-04-29 02:15 | 22.66988 | 40.69030 | 35881 ft | 470 kts | 239° |
| 2026-04-29 02:15 | 22.63412 | 40.63094 | 35881 ft | 470 kts | 238° |
| 2026-04-29 02:16 | 22.59839 | 40.57174 | 35882 ft | 470 kts | 238° |
| 2026-04-29 02:16 | 22.56252 | 40.51243 | 35883 ft | 470 kts | 238° |
| 2026-04-29 02:17 | 22.52671 | 40.45319 | 35884 ft | 470 kts | 238° |
| 2026-04-29 02:17 | 22.49111 | 40.39431 | 35882 ft | 470 kts | 238° |
| 2026-04-29 02:18 | 22.47320 | 40.36478 | 35436 ft | 471 kts | 238° |
| 2026-04-29 02:18 | 22.45507 | 40.33483 | 34222 ft | 480 kts | 238° |
| 2026-04-29 02:18 | 22.43681 | 40.30467 | 33308 ft | 480 kts | 238° |
| 2026-04-29 02:18 | 22.41848 | 40.27442 | 32295 ft | 482 kts | 238° |
| 2026-04-29 02:19 | 22.40009 | 40.24406 | 31206 ft | 484 kts | 238° |
| 2026-04-29 02:19 | 22.38161 | 40.21358 | 30148 ft | 485 kts | 238° |
| 2026-04-29 02:19 | 22.36303 | 40.18300 | 28983 ft | 487 kts | 238° |
| 2026-04-29 02:19 | 22.34432 | 40.15225 | 27708 ft | 490 kts | 238° |
| 2026-04-29 02:20 | 22.32557 | 40.12144 | 26570 ft | 490 kts | 238° |
| 2026-04-29 02:20 | 22.30700 | 40.09099 | 25843 ft | 481 kts | 238° |
| 2026-04-29 02:20 | 22.28868 | 40.06095 | 24982 ft | 476 kts | 238° |
| 2026-04-29 02:20 | 22.27057 | 40.03127 | 24159 ft | 470 kts | 238° |
| 2026-04-29 02:21 | 22.25303 | 40.00251 | 23860 ft | 455 kts | 238° |
| 2026-04-29 02:21 | 22.23596 | 39.97455 | 23736 ft | 437 kts | 238° |
| 2026-04-29 02:21 | 22.21952 | 39.94764 | 23602 ft | 421 kts | 238° |
| 2026-04-29 02:21 | 22.20368 | 39.92172 | 23475 ft | 407 kts | 239° |
| 2026-04-29 02:22 | 22.18835 | 39.89666 | 23349 ft | 393 kts | 239° |
| 2026-04-29 02:22 | 22.17353 | 39.87242 | 23220 ft | 380 kts | 239° |
| 2026-04-29 02:22 | 22.15911 | 39.84882 | 22946 ft | 372 kts | 239° |
| 2026-04-29 02:22 | 22.14489 | 39.82551 | 22503 ft | 370 kts | 239° |
| 2026-04-29 02:23 | 22.13082 | 39.80244 | 22066 ft | 368 kts | 239° |
| 2026-04-29 02:23 | 22.11680 | 39.77949 | 21636 ft | 365 kts | 239° |
| 2026-04-29 02:23 | 22.10289 | 39.75673 | 21213 ft | 363 kts | 239° |
| 2026-04-29 02:23 | 22.08900 | 39.73406 | 20792 ft | 360 kts | 239° |
| 2026-04-29 02:24 | 22.07539 | 39.71186 | 20379 ft | 358 kts | 239° |
| 2026-04-29 02:24 | 22.06170 | 39.68954 | 19972 ft | 356 kts | 239° |
| 2026-04-29 02:24 | 22.04808 | 39.66735 | 19560 ft | 354 kts | 239° |
| 2026-04-29 02:25 | 22.02105 | 39.62343 | 18765 ft | 349 kts | 239° |
| 2026-04-29 02:25 | 22.00761 | 39.60164 | 18364 ft | 347 kts | 239° |
| 2026-04-29 02:25 | 21.99431 | 39.58008 | 17960 ft | 345 kts | 239° |
| 2026-04-29 02:25 | 21.98111 | 39.55867 | 17424 ft | 341 kts | 239° |
| 2026-04-29 02:26 | 21.96804 | 39.53740 | 16829 ft | 338 kts | 239° |
| 2026-04-29 02:26 | 21.95512 | 39.51634 | 16236 ft | 336 kts | 239° |
| 2026-04-29 02:26 | 21.94271 | 39.49554 | 15663 ft | 331 kts | 245° |
| 2026-04-29 02:26 | 21.93274 | 39.47338 | 15091 ft | 328 kts | 247° |
| 2026-04-29 02:27 | 21.92294 | 39.45128 | 14520 ft | 325 kts | 247° |
| 2026-04-29 02:27 | 21.91321 | 39.42941 | 13959 ft | 322 kts | 247° |
| 2026-04-29 02:27 | 21.90354 | 39.40770 | 13409 ft | 319 kts | 247° |
| 2026-04-29 02:27 | 21.89396 | 39.38624 | 12848 ft | 317 kts | 247° |
| 2026-04-29 02:28 | 21.88444 | 39.36500 | 12283 ft | 314 kts | 247° |
| 2026-04-29 02:28 | 21.87498 | 39.34386 | 11706 ft | 311 kts | 247° |
| 2026-04-29 02:28 | 21.86564 | 39.32290 | 11154 ft | 309 kts | 247° |
| 2026-04-29 02:28 | 21.85650 | 39.30243 | 10600 ft | 306 kts | 247° |
| 2026-04-29 02:29 | 21.84723 | 39.28170 | 9872 ft | 308 kts | 247° |
| 2026-04-29 02:29 | 21.83794 | 39.26088 | 9312 ft | 305 kts | 247° |
| 2026-04-29 02:29 | 21.82865 | 39.24110 | 9133 ft | 288 kts | 239° |
| 2026-04-29 02:29 | 21.81425 | 39.22714 | 9003 ft | 275 kts | 204° |
| 2026-04-29 02:30 | 21.79585 | 39.22391 | 8612 ft | 270 kts | 173° |
| 2026-04-29 02:30 | 21.77787 | 39.22847 | 8225 ft | 263 kts | 160° |
| 2026-04-29 02:30 | 21.76098 | 39.23563 | 7840 ft | 257 kts | 155° |
| 2026-04-29 02:30 | 21.74475 | 39.24330 | 7472 ft | 254 kts | 155° |
| 2026-04-29 02:31 | 21.72861 | 39.25084 | 7107 ft | 252 kts | 156° |
| 2026-04-29 02:31 | 21.71250 | 39.25802 | 6757 ft | 251 kts | 157° |
| 2026-04-29 02:31 | 21.69625 | 39.26496 | 6408 ft | 250 kts | 158° |
| 2026-04-29 02:31 | 21.68001 | 39.27169 | 6062 ft | 250 kts | 158° |
| 2026-04-29 02:32 | 21.66374 | 39.27827 | 5716 ft | 250 kts | 159° |
| 2026-04-29 02:32 | 21.64744 | 39.28479 | 5369 ft | 249 kts | 159° |
| 2026-04-29 02:32 | 21.63119 | 39.29124 | 5024 ft | 249 kts | 159° |
| 2026-04-29 02:32 | 21.61495 | 39.29764 | 4674 ft | 248 kts | 159° |
| 2026-04-29 02:33 | 21.59875 | 39.30400 | 4334 ft | 248 kts | 159° |
| 2026-04-29 02:33 | 21.58257 | 39.31037 | 3985 ft | 247 kts | 159° |
| 2026-04-29 02:33 | 21.56657 | 39.31666 | 3652 ft | 247 kts | 159° |
| 2026-04-29 02:33 | 21.55047 | 39.32297 | 3311 ft | 246 kts | 159° |
| 2026-04-29 02:34 | 21.53448 | 39.32920 | 3043 ft | 240 kts | 159° |
| 2026-04-29 02:34 | 21.51894 | 39.33526 | 3004 ft | 237 kts | 159° |
| 2026-04-29 02:34 | 21.50340 | 39.34133 | 3011 ft | 238 kts | 159° |
| 2026-04-29 02:34 | 21.48789 | 39.34740 | 3021 ft | 235 kts | 160° |
| 2026-04-29 02:35 | 21.47265 | 39.35339 | 3037 ft | 231 kts | 160° |
| 2026-04-29 02:35 | 21.45757 | 39.35933 | 3047 ft | 230 kts | 160° |
| 2026-04-29 02:35 | 21.44275 | 39.36514 | 3053 ft | 230 kts | 161° |
| 2026-04-29 02:35 | 21.42794 | 39.37092 | 3040 ft | 219 kts | 161° |
| 2026-04-29 02:36 | 21.41333 | 39.37359 | 3026 ft | 210 kts | 186° |
| 2026-04-29 02:36 | 21.39962 | 39.36914 | 3031 ft | 205 kts | 214° |
| 2026-04-29 02:36 | 21.38988 | 39.35850 | 3040 ft | 200 kts | 243° |
| 2026-04-29 02:36 | 21.38606 | 39.34446 | 3043 ft | 196 kts | 270° |
| 2026-04-29 02:37 | 21.38868 | 39.33030 | 3043 ft | 195 kts | 297° |
| 2026-04-29 02:37 | 21.39489 | 39.31731 | 3037 ft | 195 kts | 298° |
| 2026-04-29 02:37 | 21.40109 | 39.30433 | 3034 ft | 195 kts | 298° |
| 2026-04-29 02:37 | 21.40748 | 39.29147 | 3032 ft | 195 kts | 305° |
| 2026-04-29 02:38 | 21.41654 | 39.28097 | 3031 ft | 195 kts | 323° |
| 2026-04-29 02:38 | 21.42845 | 39.27417 | 3028 ft | 194 kts | 340° |
| 2026-04-29 02:38 | 21.44113 | 39.26921 | 3023 ft | 194 kts | 339° |
| 2026-04-29 02:38 | 21.45377 | 39.26425 | 3018 ft | 194 kts | 339° |
| 2026-04-29 02:39 | 21.46649 | 39.25925 | 3022 ft | 194 kts | 339° |
| 2026-04-29 02:39 | 21.47917 | 39.25426 | 3016 ft | 194 kts | 339° |
| 2026-04-29 02:39 | 21.49167 | 39.24935 | 3046 ft | 184 kts | 339° |
| 2026-04-29 02:39 | 21.50309 | 39.24485 | 3008 ft | 165 kts | 339° |
| 2026-04-29 02:40 | 21.51332 | 39.24084 | 2993 ft | 151 kts | 339° |
| 2026-04-29 02:40 | 21.52300 | 39.23701 | 2936 ft | 146 kts | 339° |
| 2026-04-29 02:40 | 21.53241 | 39.23332 | 2801 ft | 145 kts | 339° |
| 2026-04-29 02:40 | 21.54186 | 39.22961 | 2640 ft | 145 kts | 339° |
| 2026-04-29 02:41 | 21.55133 | 39.22587 | 2455 ft | 144 kts | 340° |
| 2026-04-29 02:41 | 21.56072 | 39.22218 | 2270 ft | 143 kts | 340° |
| 2026-04-29 02:41 | 21.57010 | 39.21849 | 2076 ft | 142 kts | 340° |
| 2026-04-29 02:41 | 21.57935 | 39.21485 | 1893 ft | 142 kts | 340° |
| 2026-04-29 02:42 | 21.58864 | 39.21119 | 1713 ft | 141 kts | 340° |
| 2026-04-29 02:42 | 21.59782 | 39.20758 | 1525 ft | 140 kts | 340° |
| 2026-04-29 02:42 | 21.60746 | 39.20378 | 1324 ft | 150 kts | 340° |
| 2026-04-29 02:42 | 21.61685 | 39.20008 | 1134 ft | 143 kts | 340° |
| 2026-04-29 02:43 | 21.62611 | 39.19644 | 940 ft | 140 kts | 340° |
| 2026-04-29 02:43 | 21.63517 | 39.19287 | 786 ft | 138 kts | 340° |
| 2026-04-29 02:43 | 21.64413 | 39.18934 | 581 ft | 136 kts | 340° |
| 2026-04-29 02:43 | 21.65301 | 39.18584 | 395 ft | 136 kts | 340° |
| 2026-04-29 02:44 | 21.66189 | 39.18234 | 213 ft | 135 kts | 340° |
| 2026-04-29 02:44 | 21.67071 | 39.17888 | 52 ft | 133 kts | 336° |
| 2026-04-29 02:44 | 21.67853 | 39.17572 | 35 ft | 103 kts | 341° |
| 2026-04-29 02:44 | 21.68449 | 39.17340 | 27 ft | 79 kts | 340° |
| 2026-04-29 02:45 | 21.68862 | 39.17177 | 28 ft | 52 kts | 340° |
| 2026-04-29 02:45 | 21.69175 | 39.17053 | 33 ft | 44 kts | 339° |
| 2026-04-29 02:45 | 21.69404 | 39.16958 | 31 ft | 19 kts | 330° |
| 2026-04-29 02:45 | 21.69411 | 39.16881 | 30 ft | 8 kts | 248° |
| 2026-04-29 02:46 | 21.69392 | 39.16829 | 29 ft | 7 kts | 249° |
| 2026-04-29 02:46 | 21.69373 | 39.16772 | 27 ft | 9 kts | 251° |
| 2026-04-29 02:46 | 21.69347 | 39.16692 | 23 ft | 14 kts | 238° |
| 2026-04-29 02:46 | 21.69280 | 39.16677 | 25 ft | 8 kts | 168° |
| 2026-04-29 02:47 | 21.69216 | 39.16700 | 30 ft | 15 kts | 160° |
| 2026-04-29 02:47 | 21.69136 | 39.16732 | 29 ft | 21 kts | 159° |
| 2026-04-29 02:47 | 21.69000 | 39.16788 | 31 ft | 21 kts | 160° |
| 2026-04-29 02:47 | 21.68806 | 39.16864 | 31 ft | 23 kts | 159° |
| 2026-04-29 02:48 | 21.68705 | 39.16901 | 31 ft | 24 kts | 160° |
| 2026-04-29 02:48 | 21.68544 | 39.16965 | 28 ft | 26 kts | 160° |
| 2026-04-29 02:48 | 21.68375 | 39.17032 | 30 ft | 26 kts | 162° |
| 2026-04-29 02:48 | 21.68206 | 39.17100 | 29 ft | 26 kts | 159° |
| 2026-04-29 02:49 | 21.68047 | 39.17162 | 30 ft | 20 kts | 160° |
| 2026-04-29 02:49 | 21.67951 | 39.17189 | 30 ft | 13 kts | 155° |
| 2026-04-29 02:49 | 21.67873 | 39.17206 | 30 ft | 11 kts | 204° |
| 2026-04-29 02:49 | 21.67834 | 39.17144 | 30 ft | 10 kts | 248° |
| 2026-04-29 02:50 | 21.67804 | 39.17087 | 30 ft | 8 kts | 217° |
| 2026-04-29 02:50 | 21.67758 | 39.17090 | 30 ft | 6 kts | 159° |
| 2026-04-29 02:50 | 21.67720 | 39.17105 | 30 ft | 5 kts | 159° |
| 2026-04-29 02:50 | 21.67687 | 39.17119 | 30 ft | 5 kts | 159° |
| 2026-04-29 02:51 | 21.67644 | 39.17137 | 30 ft | 12 kts | 159° |
| 2026-04-29 02:51 | 21.67577 | 39.17160 | 30 ft | 9 kts | 191° |
| 2026-04-29 02:51 | 21.67554 | 39.17102 | 30 ft | 8 kts | 251° |
| 2026-04-29 02:51 | 21.67543 | 39.17068 | 30 ft | 0 kts | 250° |